sensor_id;sensor_type;location;lat;lon;timestamp;P1;durP1;ratioP1;P2;durP2;ratioP2
60243;SDS011;46106;51.468;5.814;2024-02-21T00:02:19;36.10;;;9.13;;
60243;SDS011;46106;51.468;5.814;2024-02-21T00:04:44;32.63;;;8.82;;
60243;SDS011;46106;51.468;5.814;2024-02-21T00:07:10;32.00;;;9.17;;
60243;SDS011;46106;51.468;5.814;2024-02-21T00:09:35;36.33;;;9.23;;
60243;SDS011;46106;51.468;5.814;2024-02-21T00:12:00;32.20;;;9.53;;
60243;SDS011;46106;51.468;5.814;2024-02-21T00:14:26;33.72;;;9.38;;
60243;SDS011;46106;51.468;5.814;2024-02-21T00:16:51;27.33;;;8.80;;
60243;SDS011;46106;51.468;5.814;2024-02-21T00:19:16;28.60;;;9.00;;
60243;SDS011;46106;51.468;5.814;2024-02-21T00:21:42;32.70;;;8.65;;
60243;SDS011;46106;51.468;5.814;2024-02-21T00:24:07;27.17;;;8.20;;
60243;SDS011;46106;51.468;5.814;2024-02-21T00:26:32;34.72;;;8.73;;
60243;SDS011;46106;51.468;5.814;2024-02-21T00:28:57;31.77;;;9.57;;
60243;SDS011;46106;51.468;5.814;2024-02-21T00:31:23;28.70;;;8.23;;
60243;SDS011;46106;51.468;5.814;2024-02-21T00:33:48;27.70;;;8.93;;
60243;SDS011;46106;51.468;5.814;2024-02-21T00:36:13;29.70;;;8.53;;
60243;SDS011;46106;51.468;5.814;2024-02-21T00:38:39;28.50;;;8.82;;
60243;SDS011;46106;51.468;5.814;2024-02-21T00:41:05;31.75;;;8.95;;
60243;SDS011;46106;51.468;5.814;2024-02-21T00:43:30;25.23;;;7.87;;
60243;SDS011;46106;51.468;5.814;2024-02-21T00:45:55;37.58;;;8.80;;
60243;SDS011;46106;51.468;5.814;2024-02-21T00:48:21;22.52;;;8.10;;
60243;SDS011;46106;51.468;5.814;2024-02-21T00:50:46;35.37;;;7.60;;
60243;SDS011;46106;51.468;5.814;2024-02-21T00:53:13;29.95;;;8.27;;
60243;SDS011;46106;51.468;5.814;2024-02-21T00:55:38;19.92;;;7.60;;
60243;SDS011;46106;51.468;5.814;2024-02-21T00:58:05;25.70;;;7.80;;
60243;SDS011;46106;51.468;5.814;2024-02-21T01:00:30;30.88;;;6.78;;
60243;SDS011;46106;51.468;5.814;2024-02-21T01:02:55;21.67;;;6.90;;
60243;SDS011;46106;51.468;5.814;2024-02-21T01:05:20;32.50;;;7.13;;
60243;SDS011;46106;51.468;5.814;2024-02-21T01:07:47;25.58;;;7.95;;
60243;SDS011;46106;51.468;5.814;2024-02-21T01:10:12;25.58;;;6.68;;
60243;SDS011;46106;51.468;5.814;2024-02-21T01:12:38;28.70;;;7.18;;
60243;SDS011;46106;51.468;5.814;2024-02-21T01:15:03;34.10;;;8.93;;
60243;SDS011;46106;51.468;5.814;2024-02-21T01:17:29;31.15;;;7.55;;
60243;SDS011;46106;51.468;5.814;2024-02-21T01:19:54;22.67;;;6.90;;
60243;SDS011;46106;51.468;5.814;2024-02-21T01:22:20;17.00;;;6.05;;
60243;SDS011;46106;51.468;5.814;2024-02-21T01:24:45;23.90;;;7.47;;
60243;SDS011;46106;51.468;5.814;2024-02-21T01:27:10;21.95;;;6.63;;
60243;SDS011;46106;51.468;5.814;2024-02-21T01:29:36;26.33;;;6.20;;
60243;SDS011;46106;51.468;5.814;2024-02-21T01:32:02;19.77;;;6.25;;
60243;SDS011;46106;51.468;5.814;2024-02-21T01:34:27;27.48;;;7.03;;
60243;SDS011;46106;51.468;5.814;2024-02-21T01:36:52;23.13;;;6.18;;
60243;SDS011;46106;51.468;5.814;2024-02-21T01:39:17;26.07;;;6.00;;
60243;SDS011;46106;51.468;5.814;2024-02-21T01:41:43;22.90;;;5.67;;
60243;SDS011;46106;51.468;5.814;2024-02-21T01:44:08;27.23;;;7.40;;
60243;SDS011;46106;51.468;5.814;2024-02-21T01:46:33;26.73;;;6.40;;
60243;SDS011;46106;51.468;5.814;2024-02-21T01:48:59;18.05;;;5.97;;
60243;SDS011;46106;51.468;5.814;2024-02-21T01:51:24;24.77;;;6.38;;
60243;SDS011;46106;51.468;5.814;2024-02-21T01:53:50;21.88;;;6.13;;
60243;SDS011;46106;51.468;5.814;2024-02-21T01:56:16;23.67;;;6.25;;
60243;SDS011;46106;51.468;5.814;2024-02-21T01:58:41;15.13;;;5.30;;
60243;SDS011;46106;51.468;5.814;2024-02-21T02:01:07;24.98;;;6.43;;
60243;SDS011;46106;51.468;5.814;2024-02-21T02:03:32;23.00;;;7.45;;
60243;SDS011;46106;51.468;5.814;2024-02-21T02:05:58;30.75;;;6.45;;
60243;SDS011;46106;51.468;5.814;2024-02-21T02:08:23;23.83;;;7.10;;
60243;SDS011;46106;51.468;5.814;2024-02-21T02:10:48;29.08;;;7.50;;
60243;SDS011;46106;51.468;5.814;2024-02-21T02:13:14;24.02;;;6.50;;
60243;SDS011;46106;51.468;5.814;2024-02-21T02:15:47;21.42;;;6.50;;
60243;SDS011;46106;51.468;5.814;2024-02-21T02:18:13;17.00;;;5.93;;
60243;SDS011;46106;51.468;5.814;2024-02-21T02:20:38;16.35;;;6.50;;
60243;SDS011;46106;51.468;5.814;2024-02-21T02:23:09;20.95;;;6.82;;
60243;SDS011;46106;51.468;5.814;2024-02-21T02:25:35;19.75;;;7.05;;
60243;SDS011;46106;51.468;5.814;2024-02-21T02:28:01;22.67;;;6.30;;
60243;SDS011;46106;51.468;5.814;2024-02-21T02:30:26;19.92;;;7.10;;
60243;SDS011;46106;51.468;5.814;2024-02-21T02:32:52;22.75;;;6.65;;
60243;SDS011;46106;51.468;5.814;2024-02-21T02:35:17;22.83;;;7.15;;
60243;SDS011;46106;51.468;5.814;2024-02-21T02:37:49;21.77;;;7.28;;
60243;SDS011;46106;51.468;5.814;2024-02-21T02:40:14;19.10;;;6.77;;
60243;SDS011;46106;51.468;5.814;2024-02-21T02:42:40;18.38;;;6.20;;
60243;SDS011;46106;51.468;5.814;2024-02-21T02:45:05;24.60;;;6.57;;
60243;SDS011;46106;51.468;5.814;2024-02-21T02:47:30;22.88;;;6.30;;
60243;SDS011;46106;51.468;5.814;2024-02-21T02:49:56;20.27;;;6.47;;
60243;SDS011;46106;51.468;5.814;2024-02-21T02:52:21;23.30;;;6.80;;
60243;SDS011;46106;51.468;5.814;2024-02-21T02:54:46;22.33;;;7.03;;
60243;SDS011;46106;51.468;5.814;2024-02-21T02:57:16;25.00;;;7.50;;
60243;SDS011;46106;51.468;5.814;2024-02-21T02:59:42;26.17;;;6.75;;
60243;SDS011;46106;51.468;5.814;2024-02-21T03:02:07;25.50;;;6.70;;
60243;SDS011;46106;51.468;5.814;2024-02-21T03:04:32;20.08;;;6.90;;
60243;SDS011;46106;51.468;5.814;2024-02-21T03:06:58;14.05;;;6.60;;
60243;SDS011;46106;51.468;5.814;2024-02-21T03:09:23;28.73;;;7.13;;
60243;SDS011;46106;51.468;5.814;2024-02-21T03:11:48;14.03;;;6.73;;
60243;SDS011;46106;51.468;5.814;2024-02-21T03:14:13;23.10;;;7.03;;
60243;SDS011;46106;51.468;5.814;2024-02-21T03:16:39;25.83;;;7.20;;
60243;SDS011;46106;51.468;5.814;2024-02-21T03:19:04;24.02;;;6.30;;
60243;SDS011;46106;51.468;5.814;2024-02-21T03:21:29;25.25;;;6.80;;
60243;SDS011;46106;51.468;5.814;2024-02-21T03:23:55;22.50;;;6.50;;
60243;SDS011;46106;51.468;5.814;2024-02-21T03:26:20;22.85;;;7.07;;
60243;SDS011;46106;51.468;5.814;2024-02-21T03:28:46;18.48;;;7.28;;
60243;SDS011;46106;51.468;5.814;2024-02-21T03:31:11;25.52;;;7.18;;
60243;SDS011;46106;51.468;5.814;2024-02-21T03:33:38;25.58;;;7.57;;
60243;SDS011;46106;51.468;5.814;2024-02-21T03:36:04;25.55;;;7.40;;
60243;SDS011;46106;51.468;5.814;2024-02-21T03:38:29;26.33;;;8.07;;
60243;SDS011;46106;51.468;5.814;2024-02-21T03:40:54;21.60;;;7.83;;
60243;SDS011;46106;51.468;5.814;2024-02-21T03:43:20;19.47;;;7.57;;
60243;SDS011;46106;51.468;5.814;2024-02-21T03:45:45;26.77;;;8.53;;
60243;SDS011;46106;51.468;5.814;2024-02-21T03:48:10;23.70;;;8.43;;
60243;SDS011;46106;51.468;5.814;2024-02-21T03:50:35;24.90;;;8.23;;
60243;SDS011;46106;51.468;5.814;2024-02-21T03:53:00;24.63;;;8.60;;
60243;SDS011;46106;51.468;5.814;2024-02-21T03:55:26;24.00;;;9.27;;
60243;SDS011;46106;51.468;5.814;2024-02-21T03:57:51;23.90;;;7.82;;
60243;SDS011;46106;51.468;5.814;2024-02-21T04:00:16;21.02;;;8.07;;
60243;SDS011;46106;51.468;5.814;2024-02-21T04:02:42;13.15;;;7.78;;
60243;SDS011;46106;51.468;5.814;2024-02-21T04:05:07;20.90;;;8.77;;
60243;SDS011;46106;51.468;5.814;2024-02-21T04:07:36;26.60;;;8.20;;
60243;SDS011;46106;51.468;5.814;2024-02-21T04:10:01;25.60;;;8.63;;
60243;SDS011;46106;51.468;5.814;2024-02-21T04:12:26;29.50;;;10.17;;
60243;SDS011;46106;51.468;5.814;2024-02-21T04:14:51;27.53;;;7.97;;
60243;SDS011;46106;51.468;5.814;2024-02-21T04:17:17;25.83;;;8.77;;
60243;SDS011;46106;51.468;5.814;2024-02-21T04:19:42;27.43;;;8.40;;
60243;SDS011;46106;51.468;5.814;2024-02-21T04:22:07;29.23;;;8.87;;
60243;SDS011;46106;51.468;5.814;2024-02-21T04:24:32;21.70;;;8.10;;
60243;SDS011;46106;51.468;5.814;2024-02-21T04:26:58;30.77;;;9.00;;
60243;SDS011;46106;51.468;5.814;2024-02-21T04:29:23;24.33;;;8.77;;
60243;SDS011;46106;51.468;5.814;2024-02-21T04:31:49;27.23;;;8.98;;
60243;SDS011;46106;51.468;5.814;2024-02-21T04:34:14;23.47;;;8.83;;
60243;SDS011;46106;51.468;5.814;2024-02-21T04:36:39;27.10;;;9.73;;
60243;SDS011;46106;51.468;5.814;2024-02-21T04:39:04;25.73;;;8.57;;
60243;SDS011;46106;51.468;5.814;2024-02-21T04:41:29;17.87;;;8.43;;
60243;SDS011;46106;51.468;5.814;2024-02-21T04:43:55;30.87;;;8.63;;
60243;SDS011;46106;51.468;5.814;2024-02-21T04:46:20;23.07;;;8.97;;
60243;SDS011;46106;51.468;5.814;2024-02-21T04:48:45;27.60;;;8.90;;
60243;SDS011;46106;51.468;5.814;2024-02-21T04:51:11;27.93;;;9.87;;
60243;SDS011;46106;51.468;5.814;2024-02-21T04:53:36;25.95;;;8.32;;
60243;SDS011;46106;51.468;5.814;2024-02-21T04:56:02;28.58;;;8.30;;
60243;SDS011;46106;51.468;5.814;2024-02-21T04:58:27;33.40;;;9.07;;
60243;SDS011;46106;51.468;5.814;2024-02-21T05:00:52;29.70;;;8.73;;
60243;SDS011;46106;51.468;5.814;2024-02-21T05:03:19;29.15;;;9.27;;
60243;SDS011;46106;51.468;5.814;2024-02-21T05:05:45;22.33;;;9.05;;
60243;SDS011;46106;51.468;5.814;2024-02-21T05:08:10;30.13;;;8.80;;
60243;SDS011;46106;51.468;5.814;2024-02-21T05:10:35;28.13;;;10.07;;
60243;SDS011;46106;51.468;5.814;2024-02-21T05:13:01;23.50;;;9.50;;
60243;SDS011;46106;51.468;5.814;2024-02-21T05:15:26;28.98;;;9.02;;
60243;SDS011;46106;51.468;5.814;2024-02-21T05:17:52;21.52;;;7.93;;
60243;SDS011;46106;51.468;5.814;2024-02-21T05:20:17;19.02;;;7.82;;
60243;SDS011;46106;51.468;5.814;2024-02-21T05:22:42;22.03;;;7.57;;
60243;SDS011;46106;51.468;5.814;2024-02-21T05:25:08;26.55;;;9.07;;
60243;SDS011;46106;51.468;5.814;2024-02-21T05:27:33;30.20;;;8.50;;
60243;SDS011;46106;51.468;5.814;2024-02-21T05:29:59;26.25;;;8.52;;
60243;SDS011;46106;51.468;5.814;2024-02-21T05:32:25;18.33;;;7.50;;
60243;SDS011;46106;51.468;5.814;2024-02-21T05:34:51;19.75;;;7.28;;
60243;SDS011;46106;51.468;5.814;2024-02-21T05:37:16;19.63;;;7.80;;
60243;SDS011;46106;51.468;5.814;2024-02-21T05:39:41;23.48;;;7.65;;
60243;SDS011;46106;51.468;5.814;2024-02-21T05:42:07;25.50;;;7.87;;
60243;SDS011;46106;51.468;5.814;2024-02-21T05:44:32;25.20;;;7.38;;
60243;SDS011;46106;51.468;5.814;2024-02-21T05:46:57;21.10;;;7.60;;
60243;SDS011;46106;51.468;5.814;2024-02-21T05:49:22;22.08;;;7.75;;
60243;SDS011;46106;51.468;5.814;2024-02-21T05:51:48;21.65;;;7.20;;
60243;SDS011;46106;51.468;5.814;2024-02-21T05:54:13;23.93;;;8.30;;
60243;SDS011;46106;51.468;5.814;2024-02-21T05:56:39;29.80;;;8.52;;
60243;SDS011;46106;51.468;5.814;2024-02-21T05:59:04;27.63;;;7.97;;
60243;SDS011;46106;51.468;5.814;2024-02-21T06:01:29;22.33;;;8.27;;
60243;SDS011;46106;51.468;5.814;2024-02-21T06:03:54;25.87;;;8.30;;
60243;SDS011;46106;51.468;5.814;2024-02-21T06:06:20;24.10;;;8.00;;
60243;SDS011;46106;51.468;5.814;2024-02-21T06:08:46;22.67;;;9.32;;
60243;SDS011;46106;51.468;5.814;2024-02-21T06:11:12;23.48;;;7.80;;
60243;SDS011;46106;51.468;5.814;2024-02-21T06:13:40;19.25;;;7.93;;
60243;SDS011;46106;51.468;5.814;2024-02-21T06:16:06;20.75;;;7.45;;
60243;SDS011;46106;51.468;5.814;2024-02-21T06:18:31;25.60;;;8.82;;
60243;SDS011;46106;51.468;5.814;2024-02-21T06:20:56;21.93;;;8.67;;
60243;SDS011;46106;51.468;5.814;2024-02-21T06:23:22;21.23;;;7.95;;
60243;SDS011;46106;51.468;5.814;2024-02-21T06:25:47;23.83;;;8.33;;
60243;SDS011;46106;51.468;5.814;2024-02-21T06:28:12;25.65;;;9.15;;
60243;SDS011;46106;51.468;5.814;2024-02-21T06:30:38;25.67;;;9.43;;
60243;SDS011;46106;51.468;5.814;2024-02-21T06:33:04;19.40;;;8.40;;
60243;SDS011;46106;51.468;5.814;2024-02-21T06:35:29;23.40;;;8.63;;
60243;SDS011;46106;51.468;5.814;2024-02-21T06:37:55;27.97;;;8.80;;
60243;SDS011;46106;51.468;5.814;2024-02-21T06:40:20;20.00;;;8.48;;
60243;SDS011;46106;51.468;5.814;2024-02-21T06:42:46;19.60;;;8.63;;
60243;SDS011;46106;51.468;5.814;2024-02-21T06:45:11;38.47;;;10.03;;
60243;SDS011;46106;51.468;5.814;2024-02-21T06:47:36;28.53;;;10.43;;
60243;SDS011;46106;51.468;5.814;2024-02-21T06:50:02;27.25;;;9.80;;
60243;SDS011;46106;51.468;5.814;2024-02-21T06:52:27;22.73;;;9.43;;
60243;SDS011;46106;51.468;5.814;2024-02-21T06:54:53;25.42;;;9.27;;
60243;SDS011;46106;51.468;5.814;2024-02-21T06:57:18;27.50;;;9.17;;
60243;SDS011;46106;51.468;5.814;2024-02-21T06:59:43;29.47;;;9.40;;
60243;SDS011;46106;51.468;5.814;2024-02-21T07:02:08;17.92;;;8.52;;
60243;SDS011;46106;51.468;5.814;2024-02-21T07:04:34;23.80;;;9.40;;
60243;SDS011;46106;51.468;5.814;2024-02-21T07:06:59;26.15;;;9.23;;
60243;SDS011;46106;51.468;5.814;2024-02-21T07:09:24;27.77;;;9.18;;
60243;SDS011;46106;51.468;5.814;2024-02-21T07:11:49;22.20;;;8.68;;
60243;SDS011;46106;51.468;5.814;2024-02-21T07:14:15;26.83;;;8.93;;
60243;SDS011;46106;51.468;5.814;2024-02-21T07:16:40;19.92;;;9.10;;
60243;SDS011;46106;51.468;5.814;2024-02-21T07:19:06;31.20;;;9.18;;
60243;SDS011;46106;51.468;5.814;2024-02-21T07:21:31;27.17;;;9.27;;
60243;SDS011;46106;51.468;5.814;2024-02-21T07:23:56;24.60;;;8.95;;
60243;SDS011;46106;51.468;5.814;2024-02-21T07:26:21;21.88;;;8.77;;
60243;SDS011;46106;51.468;5.814;2024-02-21T07:28:47;19.45;;;7.47;;
60243;SDS011;46106;51.468;5.814;2024-02-21T07:31:12;20.53;;;7.87;;
60243;SDS011;46106;51.468;5.814;2024-02-21T07:33:37;25.55;;;8.50;;
60243;SDS011;46106;51.468;5.814;2024-02-21T07:36:06;19.50;;;7.90;;
60243;SDS011;46106;51.468;5.814;2024-02-21T07:38:32;24.23;;;8.70;;
60243;SDS011;46106;51.468;5.814;2024-02-21T07:40:57;17.00;;;7.73;;
60243;SDS011;46106;51.468;5.814;2024-02-21T07:43:23;20.57;;;8.33;;
60243;SDS011;46106;51.468;5.814;2024-02-21T07:45:48;26.20;;;8.75;;
60243;SDS011;46106;51.468;5.814;2024-02-21T07:48:13;23.80;;;7.73;;
60243;SDS011;46106;51.468;5.814;2024-02-21T07:50:38;24.13;;;8.80;;
60243;SDS011;46106;51.468;5.814;2024-02-21T07:53:04;15.20;;;6.97;;
60243;SDS011;46106;51.468;5.814;2024-02-21T07:55:29;22.23;;;7.33;;
60243;SDS011;46106;51.468;5.814;2024-02-21T07:57:54;18.02;;;7.40;;
60243;SDS011;46106;51.468;5.814;2024-02-21T08:00:20;18.52;;;8.27;;
60243;SDS011;46106;51.468;5.814;2024-02-21T08:02:46;17.73;;;7.25;;
60243;SDS011;46106;51.468;5.814;2024-02-21T08:05:11;13.32;;;6.88;;
60243;SDS011;46106;51.468;5.814;2024-02-21T08:07:40;18.45;;;7.55;;
60243;SDS011;46106;51.468;5.814;2024-02-21T08:10:05;16.95;;;6.63;;
60243;SDS011;46106;51.468;5.814;2024-02-21T08:12:33;13.70;;;6.95;;
60243;SDS011;46106;51.468;5.814;2024-02-21T08:14:58;15.30;;;7.63;;
60243;SDS011;46106;51.468;5.814;2024-02-21T08:17:23;16.67;;;6.57;;
60243;SDS011;46106;51.468;5.814;2024-02-21T08:19:48;15.47;;;6.47;;
60243;SDS011;46106;51.468;5.814;2024-02-21T08:22:14;19.75;;;6.90;;
60243;SDS011;46106;51.468;5.814;2024-02-21T08:24:39;15.32;;;7.60;;
60243;SDS011;46106;51.468;5.814;2024-02-21T08:27:04;17.20;;;6.67;;
60243;SDS011;46106;51.468;5.814;2024-02-21T08:29:31;16.08;;;7.57;;
60243;SDS011;46106;51.468;5.814;2024-02-21T08:31:56;12.73;;;7.25;;
60243;SDS011;46106;51.468;5.814;2024-02-21T08:34:21;17.50;;;6.83;;
60243;SDS011;46106;51.468;5.814;2024-02-21T08:36:46;20.38;;;7.75;;
60243;SDS011;46106;51.468;5.814;2024-02-21T08:39:12;13.13;;;6.50;;
60243;SDS011;46106;51.468;5.814;2024-02-21T08:41:41;21.00;;;7.50;;
60243;SDS011;46106;51.468;5.814;2024-02-21T08:44:06;14.02;;;6.30;;
60243;SDS011;46106;51.468;5.814;2024-02-21T08:46:32;17.30;;;6.97;;
60243;SDS011;46106;51.468;5.814;2024-02-21T08:48:57;19.90;;;6.87;;
60243;SDS011;46106;51.468;5.814;2024-02-21T08:51:23;20.88;;;6.90;;
60243;SDS011;46106;51.468;5.814;2024-02-21T08:53:48;23.38;;;6.95;;
60243;SDS011;46106;51.468;5.814;2024-02-21T08:56:14;16.67;;;6.47;;
60243;SDS011;46106;51.468;5.814;2024-02-21T08:58:40;20.33;;;5.88;;
60243;SDS011;46106;51.468;5.814;2024-02-21T09:01:06;26.30;;;7.22;;
60243;SDS011;46106;51.468;5.814;2024-02-21T09:03:35;17.73;;;6.35;;
60243;SDS011;46106;51.468;5.814;2024-02-21T09:06:00;13.27;;;5.93;;
60243;SDS011;46106;51.468;5.814;2024-02-21T09:08:26;14.63;;;5.72;;
60243;SDS011;46106;51.468;5.814;2024-02-21T09:10:51;11.15;;;6.30;;
60243;SDS011;46106;51.468;5.814;2024-02-21T09:13:17;18.17;;;7.00;;
60243;SDS011;46106;51.468;5.814;2024-02-21T09:15:42;13.38;;;7.68;;
60243;SDS011;46106;51.468;5.814;2024-02-21T09:18:07;17.88;;;6.95;;
60243;SDS011;46106;51.468;5.814;2024-02-21T09:20:33;15.30;;;8.20;;
60243;SDS011;46106;51.468;5.814;2024-02-21T09:22:58;19.00;;;7.95;;
60243;SDS011;46106;51.468;5.814;2024-02-21T09:25:23;16.92;;;8.27;;
60243;SDS011;46106;51.468;5.814;2024-02-21T09:27:48;15.80;;;7.77;;
60243;SDS011;46106;51.468;5.814;2024-02-21T09:30:14;22.77;;;8.07;;
60243;SDS011;46106;51.468;5.814;2024-02-21T09:32:39;19.17;;;8.32;;
60243;SDS011;46106;51.468;5.814;2024-02-21T09:35:04;19.00;;;9.27;;
60243;SDS011;46106;51.468;5.814;2024-02-21T09:37:33;14.65;;;7.90;;
60243;SDS011;46106;51.468;5.814;2024-02-21T09:39:58;20.90;;;7.70;;
60243;SDS011;46106;51.468;5.814;2024-02-21T09:42:25;17.48;;;7.75;;
60243;SDS011;46106;51.468;5.814;2024-02-21T09:44:52;13.52;;;7.68;;
60243;SDS011;46106;51.468;5.814;2024-02-21T09:47:25;14.68;;;7.95;;
60243;SDS011;46106;51.468;5.814;2024-02-21T09:49:53;15.35;;;7.70;;
60243;SDS011;46106;51.468;5.814;2024-02-21T09:52:19;15.98;;;7.88;;
60243;SDS011;46106;51.468;5.814;2024-02-21T09:54:45;20.27;;;7.32;;
60243;SDS011;46106;51.468;5.814;2024-02-21T09:57:11;16.98;;;8.13;;
60243;SDS011;46106;51.468;5.814;2024-02-21T09:59:37;17.33;;;6.85;;
60243;SDS011;46106;51.468;5.814;2024-02-21T10:02:02;19.98;;;6.80;;
60243;SDS011;46106;51.468;5.814;2024-02-21T10:04:27;15.82;;;8.07;;
60243;SDS011;46106;51.468;5.814;2024-02-21T10:06:53;17.73;;;6.95;;
60243;SDS011;46106;51.468;5.814;2024-02-21T10:09:25;14.05;;;6.82;;
60243;SDS011;46106;51.468;5.814;2024-02-21T10:11:53;18.05;;;6.93;;
60243;SDS011;46106;51.468;5.814;2024-02-21T10:14:18;18.83;;;7.47;;
60243;SDS011;46106;51.468;5.814;2024-02-21T10:16:45;20.60;;;6.88;;
60243;SDS011;46106;51.468;5.814;2024-02-21T10:19:19;16.45;;;6.25;;
60243;SDS011;46106;51.468;5.814;2024-02-21T10:21:58;13.20;;;5.97;;
60243;SDS011;46106;51.468;5.814;2024-02-21T10:24:27;15.73;;;5.75;;
60243;SDS011;46106;51.468;5.814;2024-02-21T10:27:03;14.38;;;5.88;;
60243;SDS011;46106;51.468;5.814;2024-02-21T10:29:29;13.73;;;5.43;;
60243;SDS011;46106;51.468;5.814;2024-02-21T10:32:03;15.07;;;5.38;;
60243;SDS011;46106;51.468;5.814;2024-02-21T10:34:29;10.70;;;4.85;;
60243;SDS011;46106;51.468;5.814;2024-02-21T10:36:59;13.30;;;4.63;;
60243;SDS011;46106;51.468;5.814;2024-02-21T10:39:24;13.52;;;4.43;;
60243;SDS011;46106;51.468;5.814;2024-02-21T10:41:50;14.87;;;5.20;;
60243;SDS011;46106;51.468;5.814;2024-02-21T10:44:16;10.48;;;4.38;;
60243;SDS011;46106;51.468;5.814;2024-02-21T10:46:42;11.20;;;5.03;;
60243;SDS011;46106;51.468;5.814;2024-02-21T10:49:10;8.65;;;4.50;;
60243;SDS011;46106;51.468;5.814;2024-02-21T10:51:35;18.95;;;5.82;;
60243;SDS011;46106;51.468;5.814;2024-02-21T10:56:34;12.80;;;4.53;;
60243;SDS011;46106;51.468;5.814;2024-02-21T10:59:05;10.48;;;4.22;;
60243;SDS011;46106;51.468;5.814;2024-02-21T11:01:30;9.85;;;4.38;;
60243;SDS011;46106;51.468;5.814;2024-02-21T11:04:10;13.55;;;4.10;;
60243;SDS011;46106;51.468;5.814;2024-02-21T11:06:37;14.27;;;4.75;;
60243;SDS011;46106;51.468;5.814;2024-02-21T11:11:29;10.52;;;4.28;;
60243;SDS011;46106;51.468;5.814;2024-02-21T11:14:03;14.57;;;4.40;;
60243;SDS011;46106;51.468;5.814;2024-02-21T11:16:34;13.38;;;4.57;;
60243;SDS011;46106;51.468;5.814;2024-02-21T11:19:06;14.63;;;5.25;;
60243;SDS011;46106;51.468;5.814;2024-02-21T11:21:38;11.27;;;5.07;;
60243;SDS011;46106;51.468;5.814;2024-02-21T11:24:03;16.05;;;5.18;;
60243;SDS011;46106;51.468;5.814;2024-02-21T11:26:29;14.85;;;4.65;;
60243;SDS011;46106;51.468;5.814;2024-02-21T11:29:01;14.45;;;4.97;;
60243;SDS011;46106;51.468;5.814;2024-02-21T11:31:42;11.80;;;4.53;;
60243;SDS011;46106;51.468;5.814;2024-02-21T11:34:10;14.75;;;4.85;;
60243;SDS011;46106;51.468;5.814;2024-02-21T11:36:36;12.45;;;4.90;;
60243;SDS011;46106;51.468;5.814;2024-02-21T11:39:11;14.18;;;4.13;;
60243;SDS011;46106;51.468;5.814;2024-02-21T11:41:36;7.40;;;3.87;;
60243;SDS011;46106;51.468;5.814;2024-02-21T11:44:01;13.68;;;4.45;;
60243;SDS011;46106;51.468;5.814;2024-02-21T11:46:27;12.32;;;4.20;;
60243;SDS011;46106;51.468;5.814;2024-02-21T11:48:52;13.02;;;3.92;;
60243;SDS011;46106;51.468;5.814;2024-02-21T11:51:21;10.65;;;4.13;;
60243;SDS011;46106;51.468;5.814;2024-02-21T11:53:47;20.02;;;4.93;;
60243;SDS011;46106;51.468;5.814;2024-02-21T11:56:13;7.40;;;3.17;;
60243;SDS011;46106;51.468;5.814;2024-02-21T11:58:38;13.85;;;4.00;;
60243;SDS011;46106;51.468;5.814;2024-02-21T12:01:04;11.37;;;4.37;;
60243;SDS011;46106;51.468;5.814;2024-02-21T12:03:29;10.00;;;3.85;;
60243;SDS011;46106;51.468;5.814;2024-02-21T12:05:54;9.48;;;4.00;;
60243;SDS011;46106;51.468;5.814;2024-02-21T12:08:22;10.85;;;3.97;;
60243;SDS011;46106;51.468;5.814;2024-02-21T12:10:47;11.40;;;4.07;;
60243;SDS011;46106;51.468;5.814;2024-02-21T12:13:16;10.35;;;3.97;;
60243;SDS011;46106;51.468;5.814;2024-02-21T12:15:41;12.80;;;3.37;;
60243;SDS011;46106;51.468;5.814;2024-02-21T12:18:06;16.35;;;4.78;;
60243;SDS011;46106;51.468;5.814;2024-02-21T12:20:32;12.82;;;4.43;;
60243;SDS011;46106;51.468;5.814;2024-02-21T12:22:59;13.73;;;4.50;;
60243;SDS011;46106;51.468;5.814;2024-02-21T12:25:25;17.20;;;5.78;;
60243;SDS011;46106;51.468;5.814;2024-02-21T12:27:53;12.65;;;4.88;;
60243;SDS011;46106;51.468;5.814;2024-02-21T12:30:18;9.53;;;3.70;;
60243;SDS011;46106;51.468;5.814;2024-02-21T12:32:44;16.70;;;5.05;;
60243;SDS011;46106;51.468;5.814;2024-02-21T12:35:09;16.50;;;4.05;;
60243;SDS011;46106;51.468;5.814;2024-02-21T12:37:35;10.98;;;3.80;;
60243;SDS011;46106;51.468;5.814;2024-02-21T12:40:00;13.90;;;3.47;;
60243;SDS011;46106;51.468;5.814;2024-02-21T12:42:25;8.55;;;4.40;;
60243;SDS011;46106;51.468;5.814;2024-02-21T12:44:51;14.85;;;4.00;;
60243;SDS011;46106;51.468;5.814;2024-02-21T12:47:17;16.45;;;4.30;;
60243;SDS011;46106;51.468;5.814;2024-02-21T12:49:44;10.55;;;3.17;;
60243;SDS011;46106;51.468;5.814;2024-02-21T12:52:09;15.33;;;3.63;;
60243;SDS011;46106;51.468;5.814;2024-02-21T12:54:35;11.00;;;3.83;;
60243;SDS011;46106;51.468;5.814;2024-02-21T12:57:01;9.27;;;3.42;;
60243;SDS011;46106;51.468;5.814;2024-02-21T12:59:28;14.27;;;3.47;;
60243;SDS011;46106;51.468;5.814;2024-02-21T13:01:53;7.78;;;3.70;;
60243;SDS011;46106;51.468;5.814;2024-02-21T13:04:19;15.20;;;4.00;;
60243;SDS011;46106;51.468;5.814;2024-02-21T13:06:44;15.50;;;4.40;;
60243;SDS011;46106;51.468;5.814;2024-02-21T13:09:10;8.98;;;4.00;;
60243;SDS011;46106;51.468;5.814;2024-02-21T13:11:36;10.13;;;2.88;;
60243;SDS011;46106;51.468;5.814;2024-02-21T13:14:02;12.15;;;3.95;;
60243;SDS011;46106;51.468;5.814;2024-02-21T13:16:28;9.02;;;3.80;;
60243;SDS011;46106;51.468;5.814;2024-02-21T13:18:53;5.97;;;3.22;;
60243;SDS011;46106;51.468;5.814;2024-02-21T13:21:18;11.60;;;3.42;;
60243;SDS011;46106;51.468;5.814;2024-02-21T13:23:44;6.13;;;2.92;;
60243;SDS011;46106;51.468;5.814;2024-02-21T13:26:09;9.20;;;3.35;;
60243;SDS011;46106;51.468;5.814;2024-02-21T13:28:35;12.32;;;3.65;;
60243;SDS011;46106;51.468;5.814;2024-02-21T13:31:00;12.70;;;3.27;;
60243;SDS011;46106;51.468;5.814;2024-02-21T13:33:25;7.78;;;3.88;;
60243;SDS011;46106;51.468;5.814;2024-02-21T13:35:50;6.73;;;3.07;;
60243;SDS011;46106;51.468;5.814;2024-02-21T13:38:16;15.40;;;3.80;;
60243;SDS011;46106;51.468;5.814;2024-02-21T13:40:43;8.43;;;3.40;;
60243;SDS011;46106;51.468;5.814;2024-02-21T13:43:09;7.85;;;3.55;;
60243;SDS011;46106;51.468;5.814;2024-02-21T13:45:35;13.65;;;4.43;;
60243;SDS011;46106;51.468;5.814;2024-02-21T13:48:00;9.87;;;3.23;;
60243;SDS011;46106;51.468;5.814;2024-02-21T13:50:29;7.50;;;3.43;;
60243;SDS011;46106;51.468;5.814;2024-02-21T13:52:54;16.33;;;3.70;;
60243;SDS011;46106;51.468;5.814;2024-02-21T13:55:20;14.98;;;3.67;;
60243;SDS011;46106;51.468;5.814;2024-02-21T13:57:47;8.07;;;2.78;;
60243;SDS011;46106;51.468;5.814;2024-02-21T14:00:12;10.18;;;2.70;;
60243;SDS011;46106;51.468;5.814;2024-02-21T14:02:38;6.95;;;2.85;;
60243;SDS011;46106;51.468;5.814;2024-02-21T14:05:04;8.38;;;2.65;;
60243;SDS011;46106;51.468;5.814;2024-02-21T14:07:31;13.43;;;4.30;;
60243;SDS011;46106;51.468;5.814;2024-02-21T14:09:56;11.20;;;3.63;;
60243;SDS011;46106;51.468;5.814;2024-02-21T14:12:21;8.20;;;3.30;;
60243;SDS011;46106;51.468;5.814;2024-02-21T14:14:47;9.15;;;3.10;;
60243;SDS011;46106;51.468;5.814;2024-02-21T14:17:12;10.80;;;3.08;;
60243;SDS011;46106;51.468;5.814;2024-02-21T14:19:38;9.75;;;3.50;;
60243;SDS011;46106;51.468;5.814;2024-02-21T14:22:03;5.38;;;2.28;;
60243;SDS011;46106;51.468;5.814;2024-02-21T14:24:28;10.15;;;2.80;;
60243;SDS011;46106;51.468;5.814;2024-02-21T14:26:54;5.15;;;1.90;;
60243;SDS011;46106;51.468;5.814;2024-02-21T14:29:20;6.68;;;2.17;;
60243;SDS011;46106;51.468;5.814;2024-02-21T14:31:46;10.02;;;2.45;;
60243;SDS011;46106;51.468;5.814;2024-02-21T14:34:11;6.30;;;3.07;;